Time;durP1;ratioP1;P1;durP2;ratioP2;P2;SDS_P1;SDS_P2;PMS_P1;PMS_P2;Temp;Humidity;BMP_temperature;BMP_pressure;BME280_temperature;BME280_humidity;BME280_pressure;Samples;Min_cycle;Max_cycle;Signal;HPM_P1;HPM_P2
2022/11/21 00:00:09;;;;;;;55.53;28.67;;;;;;;-2.17;100.00;98821.75;10505395;28;20474;-74
2022/11/21 00:05:11;;;;;;;56.08;28.42;;;;;;;-1.93;100.00;98808.03;10505737;28;20045;-73
2022/11/21 00:10:13;;;;;;;58.70;29.42;;;;;;;-1.92;100.00;98799.44;10505425;28;20068;-73
2022/11/21 00:15:15;;;;;;;57.30;30.05;;;;;;;-1.87;100.00;98787.41;10487844;28;20037;-72
2022/11/21 00:20:18;;;;;;;65.80;32.35;;;;;;;-1.91;100.00;98780.53;10505422;28;20052;-73
2022/11/21 00:25:19;;;;;;;66.43;33.22;;;;;;;-1.95;100.00;98759.06;10486813;28;20052;-73
2022/11/21 00:30:21;;;;;;;74.40;35.17;;;;;;;-1.85;100.00;98745.34;10505605;28;20155;-72
2022/11/21 00:35:23;;;;;;;70.32;33.75;;;;;;;-1.85;100.00;98736.75;10487898;28;20051;-72
2022/11/21 00:40:25;;;;;;;77.15;35.33;;;;;;;-2.06;100.00;98725.63;10503806;28;20115;-74
2022/11/21 00:45:27;;;;;;;88.03;36.60;;;;;;;-1.72;100.00;98707.50;10503758;28;20543;-70
2022/11/21 00:50:29;;;;;;;81.63;35.80;;;;;;;-1.96;100.00;98694.72;10503140;28;20048;-70
2022/11/21 00:55:31;;;;;;;82.45;37.67;;;;;;;-1.59;100.00;98693.72;10503375;28;20044;-70
2022/11/21 01:00:32;;;;;;;79.28;38.10;;;;;;;-1.45;100.00;98682.50;10502802;28;20383;-72
2022/11/21 01:05:34;;;;;;;83.22;37.10;;;;;;;-1.46;100.00;98665.28;10468137;28;20131;-71
2022/11/21 01:10:36;;;;;;;81.07;37.88;;;;;;;-1.53;100.00;98642.13;10503192;28;20120;-71
2022/11/21 01:15:38;;;;;;;82.15;36.78;;;;;;;-1.46;100.00;98639.50;10485483;28;20111;-70
2022/11/21 01:20:40;;;;;;;91.47;38.55;;;;;;;-1.48;100.00;98629.22;10502221;28;20052;-70
2022/11/21 01:25:41;;;;;;;79.95;37.97;;;;;;;-1.35;100.00;98622.28;10467241;28;20048;-71
2022/11/21 01:30:43;;;;;;;87.63;37.92;;;;;;;-1.47;100.00;98617.19;10501379;28;20147;-71
2022/11/21 01:35:45;;;;;;;79.03;36.45;;;;;;;-1.34;100.00;98606.78;10482599;28;20431;-70
2022/11/21 01:40:46;;;;;;;83.28;39.00;;;;;;;-1.34;100.00;98601.63;10482824;28;20045;-70
2022/11/21 01:45:58;;;;;;;80.72;38.33;;;;;;;-1.22;100.00;98599.84;10500068;28;20109;-69
2022/11/21 01:51:17;;;;;;;81.55;37.38;;;;;;;-1.34;100.00;98600.78;10502378;28;20041;-71
2022/11/21 01:56:20;;;;;;;80.93;35.50;;;;;;;-1.03;100.00;98596.25;10482027;28;20445;-69
2022/11/21 02:01:22;;;;;;;78.35;35.72;;;;;;;-1.04;100.00;98587.66;10482877;28;20478;-70
2022/11/21 02:06:24;;;;;;;72.30;34.83;;;;;;;-1.11;100.00;98577.41;10499637;28;20482;-71
2022/11/21 02:11:35;;;;;;;81.38;35.33;;;;;;;-0.87;100.00;98569.47;10499324;28;20055;-71
2022/11/21 02:16:37;;;;;;;79.45;36.17;;;;;;;-0.85;100.00;98567.69;10501517;28;20086;-71
2022/11/21 02:21:52;;;;;;;79.85;36.55;;;;;;;-0.75;100.00;98563.34;10502273;28;20045;-72
2022/11/21 02:26:54;;;;;;;65.25;32.90;;;;;;;-0.55;100.00;98555.38;10481982;28;20090;-72
2022/11/21 02:32:01;;;;;;;70.88;32.90;;;;;;;-0.61;100.00;98553.72;10481483;28;20048;-72
2022/11/21 02:37:03;;;;;;;70.63;32.35;;;;;;;-0.64;100.00;98551.16;10500044;28;20482;-72
2022/11/21 02:42:22;;;;;;;66.95;31.90;;;;;;;-0.65;100.00;98538.28;10498686;28;20094;-72
2022/11/21 02:47:25;;;;;;;73.32;33.92;;;;;;;-0.73;100.00;98535.78;10498638;28;20037;-72
2022/11/21 02:52:26;;;;;;;63.97;32.17;;;;;;;-0.65;100.00;98533.13;10498560;28;20040;-72
2022/11/21 02:57:28;;;;;;;74.90;32.83;;;;;;;-0.72;100.00;98528.88;10498948;28;20052;-72
2022/11/21 03:02:30;;;;;;;70.07;32.05;;;;;;;-0.56;100.00;98531.28;10498731;28;20406;-72
2022/11/21 03:07:31;;;;;;;72.53;33.42;;;;;;;-0.60;100.00;98521.03;10498552;28;20037;-73
2022/11/21 03:12:41;;;;;;;72.82;33.38;;;;;;;-0.60;100.00;98523.59;10480533;28;20045;-73
2022/11/21 03:17:42;;;;;;;61.85;31.13;;;;;;;-0.56;100.00;98520.97;10480747;28;20055;-73
2022/11/21 03:22:44;;;;;;;70.15;33.33;;;;;;;-0.54;100.00;98511.47;10498762;28;20049;-72
2022/11/21 03:27:49;;;;;;;71.25;32.50;;;;;;;-0.65;100.00;98512.47;10480490;28;20037;-72
2022/11/21 03:32:54;;;;;;;70.85;33.22;;;;;;;-0.62;100.00;98497.81;10499165;28;20052;-72
2022/11/21 03:37:56;;;;;;;72.20;32.47;;;;;;;-0.64;100.00;98496.97;10500069;28;20037;-71
2022/11/21 03:43:03;;;;;;;58.78;30.92;;;;;;;-0.64;100.00;98485.78;10498429;28;20045;-73
2022/11/21 03:48:05;;;;;;;77.35;34.35;;;;;;;-0.55;100.00;98483.09;10480208;28;20087;-74
2022/11/21 03:53:07;;;;;;;68.88;32.72;;;;;;;-0.33;100.00;98483.69;10498454;28;20048;-73
2022/11/21 03:58:08;;;;;;;66.55;30.80;;;;;;;-0.32;100.00;98477.66;10498480;28;20041;-73
2022/11/21 04:03:10;;;;;;;63.88;31.92;;;;;;;-0.28;100.00;98472.41;10504398;28;20090;-73
2022/11/21 04:08:12;;;;;;;70.78;31.92;;;;;;;-0.19;100.00;98471.44;10505146;28;20041;-73
2022/11/21 04:13:14;;;;;;;66.68;31.30;;;;;;;-0.31;100.00;98469.91;10505740;28;20048;-74
2022/11/21 04:18:16;;;;;;;70.38;31.42;;;;;;;-0.47;100.00;98467.53;10505274;28;20052;-74
2022/11/21 04:23:18;;;;;;;60.53;30.17;;;;;;;-0.34;100.00;98467.34;10506169;28;20438;-74
2022/11/21 04:28:20;;;;;;;61.80;30.98;;;;;;;-0.10;100.00;98458.41;10505225;28;20033;-74
2022/11/21 04:33:22;;;;;;;56.97;30.08;;;;;;;-0.21;100.00;98449.97;10504087;28;20048;-74
2022/11/21 04:38:23;;;;;;;72.88;32.40;;;;;;;-0.24;100.00;98441.41;10504822;28;20090;-73
2022/11/21 04:43:25;;;;;;;64.85;31.17;;;;;;;-0.20;100.00;98438.75;10504605;28;20144;-73
2022/11/21 04:48:27;;;;;;;66.32;30.67;;;;;;;-0.36;100.00;98442.41;10504236;28;20555;-72
2022/11/21 04:53:29;;;;;;;67.07;31.70;;;;;;;-0.41;100.00;98436.47;10486771;28;20056;-72
2022/11/21 04:58:30;;;;;;;66.95;31.73;;;;;;;-0.19;100.00;98432.72;10504705;28;20086;-73
2022/11/21 05:03:32;;;;;;;66.40;30.73;;;;;;;-0.39;100.00;98429.56;10504870;28;20049;-73
2022/11/21 05:08:34;;;;;;;70.80;30.85;;;;;;;-0.32;100.00;98420.84;10504540;28;20406;-73
2022/11/21 05:13:36;;;;;;;54.95;27.90;;;;;;;-0.29;100.00;98432.00;10487669;28;20051;-73
2022/11/21 05:18:37;;;;;;;66.57;30.27;;;;;;;-0.35;100.00;98450.16;10503718;28;20041;-73
2022/11/21 05:23:39;;;;;;;56.35;29.75;;;;;;;-0.33;100.00;98439.81;10503490;28;20048;-75
2022/11/21 05:28:41;;;;;;;63.28;30.15;;;;;;;0.03;100.00;98438.41;10503618;28;20406;-73
2022/11/21 05:33:43;;;;;;;62.28;30.52;;;;;;;-0.22;100.00;98445.69;10503191;28;20448;-73
2022/11/21 05:38:44;;;;;;;59.95;30.27;;;;;;;0.06;100.00;98453.88;10502463;28;20089;-73
2022/11/21 05:43:46;;;;;;;60.38;30.02;;;;;;;0.01;100.00;98457.41;10502387;28;20098;-73
2022/11/21 05:48:49;;;;;;;54.30;27.27;;;;;;;0.02;100.00;98457.38;10484039;28;20044;-73
2022/11/21 05:53:50;;;;;;;63.42;28.80;;;;;;;-0.08;100.00;98461.84;10502510;28;20048;-73
2022/11/21 05:58:57;;;;;;;56.97;26.88;;;;;;;-0.13;100.00;98468.81;10502350;28;20078;-74
2022/11/21 06:04:00;;;;;;;67.87;29.97;;;;;;;-0.03;100.00;98472.94;10484066;28;20036;-72
2022/11/21 06:09:03;;;;;;;70.22;31.67;;;;;;;0.01;100.00;98480.66;10501254;28;20048;-72
2022/11/21 06:14:05;;;;;;;75.68;29.20;;;;;;;0.34;100.00;98494.81;10501132;28;20040;-72
2022/11/21 06:19:07;;;;;;;56.78;28.33;;;;;;;0.12;100.00;98502.03;10501228;28;20123;-72
2022/11/21 06:24:08;;;;;;;57.47;27.75;;;;;;;0.03;100.00;98507.31;10500398;28;20048;-72
2022/11/21 06:29:11;;;;;;;60.55;28.95;;;;;;;0.06;100.00;98518.47;10500929;28;20112;-72
2022/11/21 06:34:12;;;;;;;77.35;34.20;;;;;;;0.10;100.00;98527.88;10482763;28;20076;-73
2022/11/21 06:39:16;;;;;;;66.28;33.38;;;;;;;-0.02;100.00;98543.53;10500434;28;20052;-72
2022/11/21 06:44:19;;;;;;;59.75;30.52;;;;;;;0.00;100.00;98546.97;10500237;28;20048;-72
2022/11/21 06:49:23;;;;;;;57.50;29.70;;;;;;;0.14;100.00;98564.88;10486025;22;20047;-70
2022/11/21 06:54:25;;;;;;;23.80;18.85;;;;;;;0.45;100.00;98573.06;10448046;28;20067;-70
2022/11/21 06:59:27;;;;;;;13.30;11.77;;;;;;;0.47;100.00;98571.28;10459508;28;20409;-71
2022/11/21 07:04:28;;;;;;;15.90;12.82;;;;;;;0.59;100.00;98581.47;10458088;28;20410;-71
2022/11/21 07:09:32;;;;;;;26.95;24.65;;;;;;;0.77;100.00;98598.44;10458420;28;20051;-71
2022/11/21 07:14:34;;;;;;;16.80;15.32;;;;;;;0.52;100.00;98610.00;10457098;28;20051;-70
2022/11/21 07:19:36;;;;;;;11.98;10.98;;;;;;;0.44;100.00;98618.75;10438707;28;20037;-70
2022/11/21 07:24:41;;;;;;;14.55;13.35;;;;;;;0.63;100.00;98639.16;10457806;28;20045;-70
2022/11/21 07:29:43;;;;;;;14.18;12.98;;;;;;;0.46;100.00;98653.16;10459033;28;20041;-70
2022/11/21 07:34:45;;;;;;;14.38;13.18;;;;;;;0.56;100.00;98659.06;10442230;28;20087;-70
2022/11/21 07:39:46;;;;;;;17.05;15.35;;;;;;;0.50;100.00;98678.09;10503749;28;20041;-70
2022/11/21 07:44:48;;;;;;;19.40;17.63;;;;;;;0.37;100.00;98691.22;10506367;28;20049;-71
2022/11/21 07:49:50;;;;;;;19.52;17.60;;;;;;;0.44;100.00;98692.81;10506069;28;20041;-71
2022/11/21 07:54:51;;;;;;;22.60;20.52;;;;;;;0.31;100.00;98704.19;10506333;28;20040;-71
2022/11/21 07:59:53;;;;;;;21.40;19.30;;;;;;;0.05;100.00;98712.25;10504202;28;20056;-71
2022/11/21 08:04:55;;;;;;;28.77;21.85;;;;;;;0.01;100.00;98731.25;10503930;28;20052;-71
2022/11/21 08:09:57;;;;;;;23.42;21.23;;;;;;;-0.24;100.00;98738.38;10504053;28;20098;-70
2022/11/21 08:14:58;;;;;;;26.55;23.50;;;;;;;-0.38;100.00;98751.41;10506886;28;20045;-70
2022/11/21 08:20:00;;;;;;;36.60;25.30;;;;;;;-0.33;100.00;98759.97;10504563;28;20490;-70
2022/11/21 08:25:02;;;;;;;40.33;26.10;;;;;;;-0.44;100.00;98751.44;10503804;28;20509;-70
2022/11/21 08:30:06;;;;;;;35.47;25.27;;;;;;;-0.45;100.00;98775.53;10504125;28;20457;-70
2022/11/21 08:35:08;;;;;;;30.08;23.25;;;;;;;-0.54;100.00;98787.63;10506029;28;20056;-70
2022/11/21 08:40:10;;;;;;;26.20;23.08;;;;;;;-0.56;100.00;98799.72;10503893;28;20041;-70
2022/11/21 08:45:11;;;;;;;30.17;21.55;;;;;;;-0.44;100.00;98809.09;10503110;28;20046;-70
2022/11/21 08:50:14;;;;;;;27.70;22.95;;;;;;;-0.46;100.00;98813.41;10502757;28;20040;-70
2022/11/21 08:55:15;;;;;;;23.52;20.98;;;;;;;-0.71;100.00;98827.34;10503842;28;20048;-70
2022/11/21 09:00:17;;;;;;;25.15;21.65;;;;;;;-0.85;100.00;98836.00;10485941;28;20047;-70
2022/11/21 09:05:19;;;;;;;43.83;27.60;;;;;;;-0.88;100.00;98833.47;10502024;28;20066;-69
2022/11/21 09:10:21;;;;;;;30.27;24.73;;;;;;;-0.68;100.00;98843.66;10498184;28;20045;-70
2022/11/21 09:20:46;;;;;;;32.53;24.73;;;;;;;-0.83;100.00;98859.25;10500949;28;20049;-70
2022/11/21 09:25:47;;;;;;;39.17;24.77;;;;;;;-0.84;100.00;98854.91;10497153;28;20037;-70
2022/11/21 09:30:49;;;;;;;39.40;26.00;;;;;;;-0.81;100.00;98872.97;10497319;28;20052;-70
2022/11/21 09:35:51;;;;;;;51.28;32.03;;;;;;;-0.68;100.00;98864.31;10427394;28;20124;-70
2022/11/21 09:41:50;;;;;;;46.80;29.02;;;;;;;-0.54;100.00;98877.13;10443205;28;20103;-69
2022/11/21 09:46:36;;;;;;;53.15;29.58;;;;;;;-0.71;100.00;98881.53;10456384;28;20090;-70
2022/11/21 09:51:41;;;;;;;59.30;31.35;;;;;;;-0.80;100.00;98875.56;10459038;28;20072;-70
2022/11/21 09:56:43;;;;;;;48.95;28.08;;;;;;;-0.71;100.00;98884.97;10458346;28;20037;-70
2022/11/21 10:01:45;;;;;;;52.20;29.85;;;;;;;-0.76;100.00;98889.28;10456974;28;20556;-70
2022/11/21 10:06:50;;;;;;;46.15;28.30;;;;;;;-0.61;100.00;98896.13;10457915;28;20036;-70
2022/11/21 10:12:40;;;;;;;48.38;28.65;;;;;;;-0.65;100.00;98897.84;10456625;28;20060;-70
2022/11/21 10:17:56;;;;;;;40.50;27.05;;;;;;;-0.62;100.00;98907.28;10389673;28;20053;-69
2022/11/21 10:23:07;;;;;;;41.40;26.97;;;;;;;-0.56;100.00;98899.53;10417682;28;20094;-70
2022/11/21 10:28:21;;;;;;;40.20;24.38;;;;;;;-0.56;100.00;98899.53;10476402;28;20040;-70
2022/11/21 10:33:31;;;;;;;30.15;24.20;;;;;;;-0.63;100.00;98903.84;10471308;28;20049;-70
2022/11/21 10:38:38;;;;;;;39.42;27.27;;;;;;;-0.64;100.00;98920.19;10455390;28;20037;-70
2022/11/21 10:49:26;;;;;;;39.58;26.48;;;;;;;-0.69;100.00;98927.13;10468077;28;20037;-70
2022/11/21 10:54:31;;;;;;;35.13;25.10;;;;;;;-0.68;100.00;98923.66;10489772;28;20072;-69
2022/11/21 10:59:35;;;;;;;45.08;26.50;;;;;;;-0.59;100.00;98926.19;10458683;28;20049;-69
2022/11/21 11:04:37;;;;;;;40.58;26.88;;;;;;;-0.59;100.00;98927.91;10454579;28;20047;-69
2022/11/21 11:09:48;;;;;;;40.50;26.70;;;;;;;-0.43;100.00;98923.56;10475759;28;20048;-69
2022/11/21 11:14:55;;;;;;;54.50;28.38;;;;;;;-0.49;100.00;98926.16;10445858;28;20356;-69
2022/11/21 11:20:25;;;;;;;46.08;28.58;;;;;;;-0.63;100.00;98927.06;10463555;28;20029;-69
2022/11/21 11:25:33;;;;;;;46.85;29.05;;;;;;;-0.41;100.00;98919.22;10484369;28;20188;-68
2022/11/21 11:30:36;;;;;;;48.65;28.27;;;;;;;-0.42;100.00;98918.38;10486821;28;20090;-68
2022/11/21 11:35:39;;;;;;;52.40;29.55;;;;;;;-0.47;100.00;98911.53;10504747;28;20101;-68
2022/11/21 11:40:43;;;;;;;55.90;29.50;;;;;;;-0.49;100.00;98906.34;10503377;28;20044;-69
2022/11/21 11:51:34;;;;;;;49.50;30.23;;;;;;;-0.53;100.00;98908.13;10491777;28;20541;-68
2022/11/21 11:56:37;;;;;;;55.42;31.23;;;;;;;-0.47;100.00;98901.19;10480351;28;20398;-68
2022/11/21 12:02:06;;;;;;;56.70;32.33;;;;;;;-0.41;100.00;98901.16;10463979;28;20051;-67
2022/11/21 12:07:41;;;;;;;59.95;29.52;;;;;;;-0.35;100.00;98901.13;10460457;28;20120;-69
2022/11/21 12:13:15;;;;;;;53.22;30.35;;;;;;;-0.19;100.00;98905.31;10461669;28;20041;-67
2022/11/21 12:18:19;;;;;;;55.47;30.23;;;;;;;-0.26;100.00;98903.66;10461902;28;20044;-69
2022/11/21 12:23:27;;;;;;;53.33;30.30;;;;;;;-0.16;100.00;98907.03;10455219;28;20398;-70
2022/11/21 12:28:36;;;;;;;;;;;;;;;-0.37;100.00;98905.44;10484280;28;20037;-69
2022/11/21 12:33:51;;;;;;;52.05;29.95;;;;;;;-0.26;100.00;98909.69;10503528;28;19970;-69
2022/11/21 12:39:35;;;;;;;60.10;30.27;;;;;;;-0.18;100.00;98906.16;10502902;28;20048;-69
2022/11/21 12:45:02;;;;;;;62.97;31.38;;;;;;;-0.32;100.00;98898.50;10502327;28;20371;-70
2022/11/21 12:55:46;;;;;;;57.35;30.40;;;;;;;-0.30;100.00;98901.97;10462059;28;19921;-69
2022/11/21 13:00:48;;;;;;;60.83;33.00;;;;;;;-0.34;100.00;98897.69;10459399;28;20037;-69
2022/11/21 13:05:54;;;;;;;61.08;30.90;;;;;;;-0.32;100.00;98890.78;10461675;28;20448;-70
2022/11/21 13:16:36;;;;;;;60.78;32.08;;;;;;;-0.27;100.00;98892.47;10459243;28;20056;-69
2022/11/21 13:21:47;;;;;;;58.42;31.17;;;;;;;-0.24;100.00;98896.75;10441201;28;20045;-69
2022/11/21 13:26:52;;;;;;;62.78;33.22;;;;;;;-0.17;100.00;98875.19;10421063;28;20065;-68
2022/11/21 13:31:54;;;;;;;62.60;31.17;;;;;;;-0.17;100.00;98874.34;10456783;28;20091;-68
2022/11/21 13:36:56;;;;;;;50.72;28.15;;;;;;;-0.07;100.00;98869.06;10440513;28;20044;-69
2022/11/21 13:47:24;;;;;;;53.70;28.70;;;;;;;0.09;100.00;98867.25;10457034;28;20033;-69
2022/11/21 13:53:03;;;;;;;44.92;28.45;;;;;;;0.46;100.00;98852.22;10442043;28;20106;-69
2022/11/21 13:58:14;;;;;;;38.80;25.20;;;;;;;0.29;100.00;98846.38;10457701;28;20098;-68
2022/11/21 14:03:39;;;;;;;42.78;26.83;;;;;;;0.10;100.00;98839.66;10458689;28;20045;-70
2022/11/21 14:08:40;;;;;;;45.10;28.15;;;;;;;0.28;100.00;98843.81;10456709;28;20052;-69
2022/11/21 14:13:47;;;;;;;44.33;27.48;;;;;;;0.33;100.00;98848.06;10458654;28;20040;-70
2022/11/21 14:18:49;;;;;;;55.85;29.83;;;;;;;0.30;100.00;98845.50;10457089;28;20433;-69
2022/11/21 14:23:56;;;;;;;62.75;31.90;;;;;;;0.44;100.00;98846.25;10439090;28;20079;-69
2022/11/21 14:29:22;;;;;;;56.47;29.63;;;;;;;0.15;100.00;98845.66;10456014;28;20040;-68
2022/11/21 14:34:29;;;;;;;65.93;32.67;;;;;;;0.38;100.00;98837.66;10458520;28;20052;-69
2022/11/21 14:39:32;;;;;;;;;;;;;;;0.56;100.00;98836.63;10440480;28;20051;-69
2022/11/21 14:44:44;;;;;;;67.50;33.30;;;;;;;0.60;100.00;98833.13;10456333;28;19925;-68
2022/11/21 14:49:49;;;;;;;66.35;33.33;;;;;;;0.54;100.00;98840.97;10458050;28;20098;-69
2022/11/21 14:54:57;;;;;;;67.13;33.95;;;;;;;0.51;100.00;98834.09;10440951;28;20116;-68
2022/11/21 15:00:22;;;;;;;65.05;33.88;;;;;;;0.42;100.00;98829.88;10458584;28;20037;-69
2022/11/21 15:05:43;;;;;;;69.85;33.42;;;;;;;0.28;100.00;98829.16;10459046;28;20130;-69
2022/11/21 15:11:07;;;;;;;73.80;35.47;;;;;;;0.36;100.00;98827.34;10457498;28;20068;-69
2022/11/21 15:16:09;;;;;;;71.32;36.08;;;;;;;0.35;100.00;98822.19;10457531;28;20094;-69
2022/11/21 15:21:15;;;;;;;73.80;35.80;;;;;;;0.39;100.00;98822.13;10457208;28;20069;-70
2022/11/21 15:26:34;;;;;;;75.40;34.95;;;;;;;0.29;100.00;98822.25;10457611;28;20094;-70
2022/11/21 15:31:36;;;;;;;73.28;36.40;;;;;;;-0.03;100.00;98816.50;10456694;28;20063;-69
2022/11/21 15:36:37;;;;;;;71.05;35.17;;;;;;;0.30;100.00;98808.47;10452729;28;20045;-69
2022/11/21 15:41:39;;;;;;;80.18;38.95;;;;;;;0.28;100.00;98813.66;10438737;28;20049;-69
2022/11/21 15:46:41;;;;;;;80.65;36.35;;;;;;;0.27;100.00;98806.78;10437459;28;20040;-69
2022/11/21 15:51:45;;;;;;;73.60;34.70;;;;;;;0.22;100.00;98798.19;10462956;28;20049;-68
2022/11/21 15:57:09;;;;;;;70.97;34.55;;;;;;;-0.09;100.00;98801.09;10484533;28;20045;-69
2022/11/21 16:02:13;;;;;;;81.45;36.25;;;;;;;-0.19;100.00;98789.09;10470792;28;20040;-69
2022/11/21 16:07:14;;;;;;;70.75;34.80;;;;;;;-0.12;100.00;98790.78;10447812;28;20053;-69
2022/11/21 16:12:16;;;;;;;79.35;36.00;;;;;;;-0.10;100.00;98780.41;10465999;28;20049;-70
2022/11/21 16:17:18;;;;;;;70.18;34.70;;;;;;;0.08;100.00;98775.06;10466355;28;20388;-68
2022/11/21 16:22:20;;;;;;;78.28;36.55;;;;;;;-0.05;100.00;98766.56;10459748;28;20044;-70
2022/11/21 16:27:21;;;;;;;70.15;33.33;;;;;;;0.13;100.00;98762.09;10496346;28;20036;-67
2022/11/21 16:32:26;;;;;;;67.50;35.10;;;;;;;0.42;100.00;98754.03;10506119;28;20068;-70
2022/11/21 16:37:30;;;;;;;74.20;35.53;;;;;;;0.08;100.00;98745.78;10506017;28;20041;-69
2022/11/21 16:42:32;;;;;;;64.32;32.88;;;;;;;0.09;100.00;98743.22;10488539;28;20040;-70
2022/11/21 16:47:36;;;;;;;76.88;35.90;;;;;;;0.25;100.00;98738.72;10504754;28;20039;-70
2022/11/21 16:52:37;;;;;;;76.20;34.58;;;;;;;0.07;100.00;98738.91;10498326;28;20106;-70
2022/11/21 16:57:39;;;;;;;74.18;34.92;;;;;;;0.06;100.00;98729.47;10483581;28;20048;-69
2022/11/21 17:02:41;;;;;;;78.53;35.40;;;;;;;0.35;100.00;98719.63;10475653;28;20045;-69
2022/11/21 17:07:43;;;;;;;67.38;32.72;;;;;;;0.16;100.00;98723.31;10463116;28;20043;-69
2022/11/21 17:12:45;;;;;;;69.45;34.05;;;;;;;0.10;100.00;98715.66;10421181;28;20053;-69
2022/11/21 17:17:47;;;;;;;68.93;34.72;;;;;;;0.17;100.00;98706.94;10438492;28;20051;-68
2022/11/21 17:22:49;;;;;;;75.90;36.00;;;;;;;0.15;100.00;98711.28;10444413;28;20049;-70
2022/11/21 17:27:51;;;;;;;72.00;33.55;;;;;;;0.13;100.00;98705.25;10462458;28;20049;-69
2022/11/21 17:32:52;;;;;;;77.25;33.63;;;;;;;0.08;100.00;98705.31;10461639;28;20127;-70
2022/11/21 17:37:54;;;;;;;77.28;34.72;;;;;;;0.14;100.00;98705.25;10461158;28;20044;-69
2022/11/21 17:42:56;;;;;;;83.97;36.70;;;;;;;0.33;100.00;98702.47;10462456;28;20135;-68
2022/11/21 17:47:57;;;;;;;70.30;35.00;;;;;;;0.18;100.00;98706.09;10460796;28;20041;-69
2022/11/21 17:52:59;;;;;;;70.63;34.38;;;;;;;0.28;100.00;98699.06;10478544;28;20048;-69
2022/11/21 17:58:02;;;;;;;64.00;33.28;;;;;;;0.21;100.00;98696.53;10503843;28;20406;-70
2022/11/21 18:03:04;;;;;;;76.70;35.25;;;;;;;0.12;100.00;98694.06;10503500;28;20132;-70
2022/11/21 18:08:05;;;;;;;67.00;34.30;;;;;;;-0.17;100.00;98685.81;10502737;28;20063;-70
2022/11/21 18:13:08;;;;;;;67.32;32.83;;;;;;;-0.08;100.00;98693.44;10503157;28;20040;-71
2022/11/21 18:18:10;;;;;;;62.30;31.90;;;;;;;-0.33;100.00;98680.78;10483612;28;20469;-70
2022/11/21 18:23:12;;;;;;;67.57;33.10;;;;;;;-0.26;100.00;98681.59;10462599;28;20044;-71
2022/11/21 18:28:13;;;;;;;69.35;32.30;;;;;;;-0.64;100.00;98674.19;10461368;28;20116;-71
2022/11/21 18:33:15;;;;;;;66.43;33.13;;;;;;;-0.27;100.00;98670.41;10460118;28;20087;-71
2022/11/21 18:38:20;;;;;;;66.72;31.33;;;;;;;-0.62;100.00;98655.25;10459730;28;20086;-72
2022/11/21 18:43:43;;;;;;;70.28;32.30;;;;;;;-0.54;100.00;98645.69;10461312;28;20041;-73
2022/11/21 18:48:45;;;;;;;60.60;30.88;;;;;;;-0.68;100.00;98626.03;10473410;22;20056;-72
2022/11/21 18:54:08;;;;;;;60.00;31.25;;;;;;;-0.85;100.00;98608.13;10464005;28;20049;-73
2022/11/21 18:59:11;;;;;;;61.05;29.85;;;;;;;-1.05;100.00;98595.41;10460792;28;20037;-72
2022/11/21 19:04:12;;;;;;;64.88;30.38;;;;;;;-1.11;100.00;98585.13;10462726;28;20494;-72
2022/11/21 19:09:14;;;;;;;67.82;31.23;;;;;;;-1.09;100.00;98579.09;10442623;28;20037;-72
2022/11/21 19:14:16;;;;;;;63.10;31.70;;;;;;;-0.61;100.00;98576.94;10441639;28;20045;-73
2022/11/21 19:19:17;;;;;;;60.03;30.20;;;;;;;-0.97;100.00;98572.13;10458622;28;20086;-71
2022/11/21 19:24:36;;;;;;;58.78;30.17;;;;;;;-1.00;100.00;98554.97;10440917;28;20118;-71
2022/11/21 19:29:38;;;;;;;59.28;29.25;;;;;;;-1.12;100.00;98550.75;10444671;28;20174;-71
2022/11/21 19:34:40;;;;;;;67.28;31.40;;;;;;;-0.87;100.00;98547.97;10448146;28;20455;-72
2022/11/21 19:39:42;;;;;;;58.95;29.38;;;;;;;-1.12;100.00;98537.00;10448316;28;20045;-71
2022/11/21 19:44:43;;;;;;;52.47;28.80;;;;;;;-0.61;100.00;98545.97;10465453;28;20041;-74
2022/11/21 19:49:45;;;;;;;47.55;27.45;;;;;;;-0.99;100.00;98536.03;10449785;28;20449;-71
2022/11/21 19:54:47;;;;;;;54.58;27.05;;;;;;;-0.97;100.00;98534.31;10448811;28;20049;-73
2022/11/21 19:59:49;;;;;;;47.03;29.20;;;;;;;-1.21;100.00;98540.53;10447731;28;20056;-71
2022/11/21 20:04:53;;;;;;;67.35;32.92;;;;;;;-1.24;100.00;98535.38;10467170;28;20059;-71
2022/11/21 20:09:54;;;;;;;51.10;29.40;;;;;;;-1.00;100.00;98528.31;10467817;28;20045;-70
2022/11/21 20:14:56;;;;;;;46.88;27.23;;;;;;;-1.19;100.00;98545.69;10451721;28;20053;-71
2022/11/21 20:19:58;;;;;;;51.08;29.50;;;;;;;-1.27;100.00;98538.00;10467454;28;20098;-71
2022/11/21 20:25:00;;;;;;;49.33;27.55;;;;;;;-1.09;100.00;98545.59;10463629;28;20049;-73
2022/11/21 20:30:03;;;;;;;54.83;28.60;;;;;;;-1.34;100.00;98542.34;10444835;28;20554;-73
2022/11/21 20:35:05;;;;;;;47.00;26.95;;;;;;;-1.08;100.00;98543.84;10465246;28;20040;-72
2022/11/21 20:40:08;;;;;;;46.63;27.50;;;;;;;-1.20;100.00;98547.38;10446387;28;20037;-72
2022/11/21 20:45:10;;;;;;;43.13;25.48;;;;;;;-1.45;100.00;98554.47;10445250;28;20060;-72
2022/11/21 20:50:31;;;;;;;44.20;27.20;;;;;;;-1.66;100.00;98545.16;10463070;28;20044;-71
2022/11/21 20:55:59;;;;;;;52.55;27.17;;;;;;;-1.71;100.00;98546.91;10450883;28;20048;-71
2022/11/21 21:01:01;;;;;;;42.25;25.15;;;;;;;-1.80;100.00;98541.84;10463397;28;20117;-70
2022/11/21 21:06:05;;;;;;;48.90;28.25;;;;;;;-1.92;100.00;98529.03;10465495;28;20114;-72
2022/11/21 21:11:12;;;;;;;51.17;27.90;;;;;;;-1.50;100.00;98533.03;10448971;28;20482;-72
2022/11/21 21:16:35;;;;;;;44.60;26.77;;;;;;;-1.45;100.00;98544.16;10464856;28;20069;-71
2022/11/21 21:21:36;;;;;;;38.50;25.67;;;;;;;-1.54;100.00;98544.25;10463203;28;20033;-72
2022/11/21 21:26:44;;;;;;;43.10;26.65;;;;;;;-1.72;100.00;98545.22;10445206;28;20040;-71
2022/11/21 21:31:47;;;;;;;43.38;27.30;;;;;;;-1.82;100.00;98543.53;10444165;28;20462;-72
2022/11/21 21:36:53;;;;;;;45.00;27.43;;;;;;;-1.97;100.00;98539.34;10442809;28;20045;-71
2022/11/21 21:41:55;;;;;;;44.97;25.13;;;;;;;-1.86;100.00;98539.28;10464274;28;20045;-71
2022/11/21 21:46:56;;;;;;;33.63;24.77;;;;;;;-2.11;100.00;98551.44;10463030;28;20513;-71
2022/11/21 21:51:58;;;;;;;39.90;24.60;;;;;;;-2.10;100.00;98554.00;10461333;28;20513;-72
2022/11/21 21:57:00;;;;;;;38.65;25.85;;;;;;;-2.17;100.00;98557.47;10460283;28;20049;-72
2022/11/21 22:02:03;;;;;;;40.70;25.63;;;;;;;-2.24;100.00;98560.94;10462648;28;20441;-71
2022/11/21 22:07:07;;;;;;;38.63;24.55;;;;;;;-2.30;100.00;98545.53;10460598;28;20095;-70
2022/11/21 22:12:09;;;;;;;43.58;25.35;;;;;;;-2.04;100.00;98546.25;10458089;28;20045;-71
2022/11/21 22:17:10;;;;;;;37.35;23.80;;;;;;;-2.00;100.00;98533.34;10442085;28;20048;-71
2022/11/21 22:22:12;;;;;;;29.85;23.67;;;;;;;-2.01;100.00;98535.06;10461166;28;20037;-71
2022/11/21 22:27:14;;;;;;;32.17;24.67;;;;;;;-2.01;100.00;98521.34;10462617;28;20049;-71
2022/11/21 22:32:16;;;;;;;32.28;24.75;;;;;;;-1.81;100.00;98516.94;10460681;28;20052;-72
2022/11/21 22:37:20;;;;;;;28.85;22.63;;;;;;;-1.86;100.00;98503.22;10460467;28;20470;-70
2022/11/21 22:42:22;;;;;;;30.77;23.13;;;;;;;-1.91;100.00;98508.41;10442026;28;20102;-70
2022/11/21 22:47:23;;;;;;;35.75;22.40;;;;;;;-1.75;100.00;98491.13;10460119;28;20033;-70
2022/11/21 22:52:25;;;;;;;31.42;23.17;;;;;;;-1.38;100.00;98477.94;10459103;28;20091;-72
2022/11/21 22:57:27;;;;;;;32.92;24.42;;;;;;;-1.04;100.00;98478.50;10458928;28;20071;-72
2022/11/21 23:02:28;;;;;;;24.50;22.02;;;;;;;-0.82;100.00;98464.50;10459467;28;20041;-71
2022/11/21 23:07:30;;;;;;;26.95;21.75;;;;;;;-0.57;100.00;98466.78;10449879;28;20052;-71
2022/11/21 23:12:36;;;;;;;21.00;19.10;;;;;;;-0.46;100.00;98457.19;10469448;28;20041;-69
2022/11/21 23:17:37;;;;;;;22.33;19.75;;;;;;;-0.34;100.00;98456.19;10468296;28;20044;-71
2022/11/21 23:22:39;;;;;;;22.40;20.10;;;;;;;-0.30;100.00;98463.00;10467400;28;20048;-71
2022/11/21 23:27:40;;;;;;;21.92;17.63;;;;;;;-0.25;100.00;98461.22;10465512;28;20049;-72